createdAt,value
2018-09-28T00:01:02.010Z,5.57
2018-09-28T00:03:30.286Z,5.80
2018-09-28T00:05:58.561Z,5.10
2018-09-28T00:08:26.824Z,5.27
2018-09-28T00:10:55.068Z,5.93
2018-09-28T00:13:29.511Z,4.83
2018-09-28T00:27:27.207Z,4.80
2018-09-28T00:29:55.438Z,4.47
2018-09-28T00:32:23.684Z,4.30
2018-09-28T00:34:52.026Z,3.57
2018-09-28T00:37:20.287Z,2.43
2018-09-28T00:39:48.561Z,1.87
2018-09-28T00:42:16.875Z,1.67
2018-09-28T00:44:45.108Z,1.40
2018-09-28T00:47:13.371Z,1.33
2018-09-28T00:49:41.633Z,1.20
2018-09-28T00:52:09.886Z,1.10
2018-09-28T00:54:38.161Z,1.33
2018-09-28T00:57:06.511Z,1.73
2018-09-28T00:59:34.740Z,1.63
2018-09-28T01:02:03.017Z,1.63
2018-09-28T01:04:31.257Z,1.67
2018-09-28T01:06:59.527Z,1.80
2018-09-28T01:09:27.770Z,1.53
2018-09-28T01:11:56.047Z,1.50
2018-09-28T01:17:39.486Z,1.90
2018-09-28T01:20:27.599Z,1.90
2018-09-28T01:25:48.144Z,1.97
2018-09-28T02:16:50.988Z,1.63
2018-09-28T02:19:32.088Z,2.03
2018-09-28T02:22:00.394Z,1.60
2018-09-28T02:24:28.736Z,1.97
2018-09-28T02:26:56.973Z,1.87
2018-09-28T02:29:25.222Z,1.77
2018-09-28T02:31:53.477Z,2.07
2018-09-28T02:34:21.721Z,2.10
2018-09-28T02:36:49.974Z,2.70
2018-09-28T02:39:18.237Z,2.57
2018-09-28T02:41:46.477Z,1.73
2018-09-28T02:44:14.727Z,2.37
2018-09-28T02:46:42.981Z,3.17
2018-09-28T02:49:11.225Z,2.50
2018-09-28T02:51:39.485Z,2.83
2018-09-28T02:54:07.746Z,2.67
2018-09-28T02:56:35.982Z,2.77
2018-09-28T02:59:04.237Z,2.70
2018-09-28T03:01:32.498Z,3.40
2018-09-28T03:04:00.852Z,3.13
2018-09-28T03:06:29.232Z,2.90
2018-09-28T03:08:57.472Z,3.03
2018-09-28T03:11:25.728Z,2.60
2018-09-28T03:14:13.730Z,2.60
2018-09-28T03:16:41.994Z,2.87
2018-09-28T03:19:10.257Z,2.80
2018-09-28T03:21:50.490Z,3.00
2018-09-28T05:13:02.488Z,2.30
2018-09-28T05:15:30.793Z,2.20
2018-09-28T05:17:59.085Z,2.23
2018-09-28T05:20:27.349Z,2.20
2018-09-28T05:23:05.944Z,2.70
2018-09-28T06:14:17.653Z,2.60
2018-09-28T06:16:45.914Z,2.30
2018-09-28T06:19:14.239Z,2.40
2018-09-28T06:24:35.183Z,2.50
2018-09-28T06:39:04.956Z,2.57
2018-09-28T06:41:33.209Z,2.30
2018-09-28T06:44:01.460Z,2.40
2018-09-28T06:46:29.738Z,2.53
2018-09-28T06:48:57.986Z,2.77
2018-09-28T06:51:26.319Z,2.10
2018-09-28T06:53:54.612Z,2.63
2018-09-28T06:56:22.892Z,2.23
2018-09-28T06:58:51.147Z,2.27
2018-09-28T07:01:19.445Z,2.50
2018-09-28T07:03:47.727Z,2.17
2018-09-28T07:06:16.015Z,2.37
2018-09-28T07:08:44.257Z,2.53
2018-09-28T07:11:12.490Z,2.13
2018-09-28T07:19:25.649Z,2.10
2018-09-28T07:24:46.661Z,2.70
2018-09-28T08:15:49.178Z,2.00
2018-09-28T08:18:18.374Z,2.53
2018-09-28T08:20:47.801Z,2.07
2018-09-28T08:23:18.697Z,2.80
2018-09-28T08:25:46.914Z,2.10
2018-09-28T08:28:15.209Z,2.23
2018-09-28T08:33:26.106Z,1.93
2018-09-28T08:35:54.375Z,2.87
2018-09-28T08:38:22.653Z,2.40
2018-09-28T08:40:50.958Z,2.20
2018-09-28T08:43:19.210Z,2.50
2018-09-28T08:45:47.472Z,2.10
2018-09-28T08:48:15.725Z,2.00
2018-09-28T08:50:43.988Z,2.30
2018-09-28T08:53:12.229Z,2.23
2018-09-28T08:55:40.501Z,2.27
2018-09-28T08:58:08.749Z,2.83
2018-09-28T09:00:36.993Z,2.27
2018-09-28T09:03:05.229Z,2.87
2018-09-28T09:05:33.487Z,2.53
2018-09-28T09:08:01.750Z,1.90
2018-09-28T09:10:30.000Z,2.00
2018-09-28T09:12:58.242Z,2.00
2018-09-28T10:18:30.683Z,2.40
2018-09-28T10:26:44.129Z,2.07
2018-09-28T10:29:12.369Z,1.83
2018-09-28T10:31:40.604Z,1.93
2018-09-28T10:34:08.878Z,2.20
2018-09-28T10:36:37.106Z,1.90
2018-09-28T10:39:06.771Z,1.87
2018-09-28T10:41:35.913Z,2.23
2018-09-28T10:44:04.410Z,2.07
2018-09-28T10:46:32.662Z,2.30
2018-09-28T10:49:00.973Z,1.93
2018-09-28T10:51:29.310Z,1.90
2018-09-28T10:53:57.645Z,1.80
2018-09-28T10:56:25.931Z,2.03
2018-09-28T10:58:54.270Z,1.73
2018-09-28T11:01:22.473Z,1.70
2018-09-28T11:03:50.806Z,2.03
2018-09-28T11:06:18.977Z,2.00
2018-09-28T11:08:47.341Z,2.20
2018-09-28T11:11:15.518Z,2.00
2018-09-28T11:25:13.202Z,2.13
2018-09-28T12:16:13.222Z,2.20
2018-09-28T12:18:41.511Z,2.03
2018-09-28T12:21:21.772Z,1.63
2018-09-28T12:26:42.573Z,1.87
2018-09-28T12:29:10.864Z,1.90
2018-09-28T12:31:39.105Z,1.80
2018-09-28T12:34:07.386Z,2.13
2018-09-28T12:36:35.666Z,1.73
2018-09-28T12:39:05.242Z,1.80
2018-09-28T12:41:33.501Z,1.60
2018-09-28T12:44:01.761Z,1.50
2018-09-28T12:46:30.002Z,1.60
2018-09-28T12:48:58.275Z,1.70
2018-09-28T12:51:26.517Z,1.70
2018-09-28T12:53:54.768Z,1.17
2018-09-28T12:56:23.003Z,1.53
2018-09-28T12:58:51.258Z,1.50
2018-09-28T13:04:15.765Z,1.53
2018-09-28T13:06:44.041Z,1.50
2018-09-28T13:09:12.359Z,1.63
2018-09-28T13:11:40.585Z,1.70
2018-09-28T14:12:14.897Z,1.57
2018-09-28T14:26:14.966Z,1.63
2018-09-28T14:28:43.234Z,1.63
2018-09-28T14:31:11.508Z,1.70
2018-09-28T14:33:39.792Z,1.43
2018-09-28T14:36:08.142Z,1.60
2018-09-28T14:38:36.451Z,1.20
2018-09-28T14:41:04.677Z,1.70
2018-09-28T14:43:32.936Z,1.73
2018-09-28T14:46:01.201Z,1.67
2018-09-28T14:48:29.496Z,1.67
2018-09-28T14:50:57.706Z,1.80
2018-09-28T14:53:26.108Z,1.60
2018-09-28T14:55:54.675Z,1.77
2018-09-28T14:58:23.002Z,1.63
2018-09-28T15:00:51.539Z,1.80
2018-09-28T15:03:20.056Z,1.90
2018-09-28T15:05:48.532Z,1.73
2018-09-28T15:08:16.899Z,1.60
2018-09-28T15:10:45.156Z,1.90
2018-09-28T15:13:13.987Z,1.60
2018-09-28T16:16:07.934Z,1.43
2018-09-28T16:18:36.284Z,1.90
2018-09-28T16:21:04.524Z,1.70
2018-09-28T16:23:36.765Z,1.60
2018-09-28T16:57:54.592Z,2.00
2018-09-28T17:00:22.922Z,2.40
2018-09-28T17:02:51.156Z,1.40
2018-09-28T17:05:19.418Z,1.63
2018-09-28T17:07:47.681Z,1.20
2018-09-28T17:10:15.903Z,1.20
2018-09-28T17:12:45.273Z,1.80
2018-09-28T17:23:52.317Z,1.47
2018-09-28T17:26:20.595Z,1.20
2018-09-28T18:26:52.799Z,1.30
2018-09-28T18:29:27.474Z,1.70
2018-09-28T18:31:55.834Z,1.87
2018-09-28T18:34:24.128Z,1.33
2018-09-28T18:36:52.372Z,1.47
2018-09-28T18:39:21.574Z,1.60
2018-09-28T18:41:49.839Z,1.43
2018-09-28T18:44:18.139Z,1.20
2018-09-28T18:46:46.449Z,1.57
2018-09-28T18:49:14.726Z,1.70
2018-09-28T18:51:43.010Z,1.93
2018-09-28T18:54:11.277Z,1.83
2018-09-28T18:56:39.546Z,1.50
2018-09-28T18:59:08.734Z,1.33
2018-09-28T19:01:37.033Z,1.50
2018-09-28T19:04:05.331Z,1.57
2018-09-28T19:06:33.610Z,1.60
2018-09-28T19:09:01.849Z,1.30
2018-09-28T19:11:30.101Z,1.50
2018-09-28T19:13:58.429Z,1.20
2018-09-28T19:16:26.729Z,1.30
2018-09-28T19:18:55.005Z,1.37
2018-09-28T19:27:08.829Z,1.53
2018-09-28T19:29:37.154Z,1.60
2018-09-28T19:32:05.469Z,1.30
2018-09-28T19:34:33.800Z,1.60
2018-09-28T19:37:02.037Z,1.70
2018-09-28T19:39:30.333Z,1.53
2018-09-28T19:41:58.637Z,1.67
2018-09-28T19:44:26.937Z,1.60
2018-09-28T19:46:55.271Z,1.33
2018-09-28T19:49:23.577Z,1.50
2018-09-28T19:51:51.854Z,1.13
2018-09-28T19:54:20.257Z,1.30
2018-09-28T19:56:48.666Z,1.23
2018-09-28T19:59:16.985Z,1.30
2018-09-28T20:01:45.289Z,1.50
2018-09-28T20:04:13.593Z,1.43
2018-09-28T20:06:41.876Z,1.33
2018-09-28T20:09:11.269Z,1.40
2018-09-28T20:11:39.912Z,1.37
2018-09-28T20:14:08.540Z,1.33
2018-09-28T21:14:12.481Z,1.70
2018-09-28T22:14:13.301Z,1.77
2018-09-28T23:23:23.800Z,2.07
